Time;durP1;ratioP1;P1;durP2;ratioP2;P2;SDS_P1;SDS_P2;PMS_P1;PMS_P2;Temp;Humidity;BMP_temperature;BMP_pressure;BME280_temperature;BME280_humidity;BME280_pressure;Samples;Min_cycle;Max_cycle;Signal;HPM_P1;HPM_P2
2022/01/29 00:00:29;;;;;;;1.43;1.03;;;;;;;;;;6340781;28;20227;-78
2022/01/29 00:03:35;;;;;;;2.17;1.30;;;;;;;;;;6342638;28;20207;-78
2022/01/29 00:06:40;;;;;;;1.07;0.80;;;;;;;;;;6342362;28;20228;-78
2022/01/29 00:09:47;;;;;;;1.00;1.00;;;;;;;;;;6342301;28;20188;-78
2022/01/29 00:12:51;;;;;;;10.67;5.40;;;;;;;;;;6342248;28;20195;-78
2022/01/29 00:15:56;;;;;;;2.93;1.53;;;;;;;;;;6341700;28;20443;-78
2022/01/29 00:19:00;;;;;;;1.10;1.10;;;;;;;;;;6342947;28;20189;-78
2022/01/29 00:22:05;;;;;;;1.30;1.30;;;;;;;;;;6342085;28;20249;-78
2022/01/29 00:25:12;;;;;;;0.90;0.90;;;;;;;;;;6341867;28;20226;-78
2022/01/29 00:28:16;;;;;;;1.50;1.03;;;;;;;;;;6342483;28;20186;-78
2022/01/29 00:31:20;;;;;;;1.03;1.03;;;;;;;;;;6357063;28;20220;-78
2022/01/29 00:34:24;;;;;;;1.00;1.00;;;;;;;;;;6342266;28;20189;-78
2022/01/29 00:37:28;;;;;;;3.23;1.23;;;;;;;;;;6341346;28;20233;-78
2022/01/29 00:40:36;;;;;;;6.23;1.43;;;;;;;;;;6341259;28;20225;-77
2022/01/29 00:43:40;;;;;;;1.10;1.10;;;;;;;;;;6341407;28;20439;-78
2022/01/29 00:46:44;;;;;;;1.37;1.30;;;;;;;;;;6341421;28;20524;-78
2022/01/29 00:49:49;;;;;;;3.63;1.10;;;;;;;;;;6340863;28;20253;-78
2022/01/29 00:52:53;;;;;;;1.97;1.10;;;;;;;;;;6341133;28;20209;-78
2022/01/29 00:55:58;;;;;;;1.10;1.10;;;;;;;;;;6341211;28;20234;-78
2022/01/29 00:59:02;;;;;;;2.07;1.13;;;;;;;;;;6342180;28;20194;-78
2022/01/29 01:02:08;;;;;;;1.03;1.00;;;;;;;;;;6340566;28;20229;-78
2022/01/29 01:05:13;;;;;;;1.10;1.07;;;;;;;;;;6341805;28;20225;-78
2022/01/29 01:08:17;;;;;;;1.13;1.13;;;;;;;;;;6341036;28;20224;-77
2022/01/29 01:11:23;;;;;;;2.33;1.00;;;;;;;;;;6340717;28;20237;-78
2022/01/29 01:14:28;;;;;;;2.00;1.30;;;;;;;;;;6341284;28;20196;-78
2022/01/29 01:17:32;;;;;;;2.10;1.33;;;;;;;;;;6341074;28;20229;-78
2022/01/29 01:20:36;;;;;;;1.10;1.10;;;;;;;;;;6341043;28;20284;-78
2022/01/29 01:23:40;;;;;;;2.63;1.30;;;;;;;;;;6341045;28;20214;-78
2022/01/29 01:26:46;;;;;;;1.00;1.00;;;;;;;;;;6340851;28;20244;-78
2022/01/29 01:29:50;;;;;;;2.67;1.30;;;;;;;;;;6340966;28;20185;-78
2022/01/29 01:32:54;;;;;;;1.17;1.17;;;;;;;;;;6340663;28;20259;-78
2022/01/29 01:36:02;;;;;;;1.97;1.13;;;;;;;;;;6340492;28;20229;-78
2022/01/29 01:39:13;;;;;;;1.70;1.27;;;;;;;;;;6340572;28;20397;-78
2022/01/29 01:42:19;;;;;;;3.50;1.27;;;;;;;;;;6340180;28;20251;-78
2022/01/29 01:45:23;;;;;;;3.00;1.00;;;;;;;;;;6340627;28;20279;-78
2022/01/29 01:48:27;;;;;;;0.93;0.93;;;;;;;;;;6340745;28;20183;-78
2022/01/29 01:51:31;;;;;;;1.17;1.17;;;;;;;;;;6339778;28;20428;-78
2022/01/29 01:54:35;;;;;;;2.07;1.00;;;;;;;;;;6321969;28;20367;-78
2022/01/29 01:57:41;;;;;;;1.03;1.00;;;;;;;;;;6339694;28;20221;-78
2022/01/29 02:00:45;;;;;;;1.13;0.90;;;;;;;;;;6339911;28;20407;-78
2022/01/29 02:03:51;;;;;;;3.73;1.10;;;;;;;;;;6340038;28;20217;-78
2022/01/29 02:06:55;;;;;;;1.30;1.10;;;;;;;;;;6339649;28;20225;-78
2022/01/29 02:09:59;;;;;;;1.40;1.30;;;;;;;;;;6339669;28;20224;-78
2022/01/29 02:13:05;;;;;;;1.50;1.00;;;;;;;;;;6339641;28;20190;-77
2022/01/29 02:16:11;;;;;;;3.40;1.20;;;;;;;;;;6338691;28;20245;-78
2022/01/29 02:19:15;;;;;;;1.20;1.20;;;;;;;;;;6339188;28;20190;-78
2022/01/29 02:22:21;;;;;;;1.50;1.17;;;;;;;;;;6337939;28;20260;-78
2022/01/29 02:25:30;;;;;;;2.73;1.40;;;;;;;;;;6338421;28;20297;-78
2022/01/29 02:28:35;;;;;;;4.33;1.10;;;;;;;;;;6339911;28;20193;-78
2022/01/29 02:31:46;;;;;;;1.47;1.20;;;;;;;;;;6338707;28;20222;-78
2022/01/29 02:34:50;;;;;;;1.43;1.33;;;;;;;;;;6338535;28;20189;-78
2022/01/29 02:37:58;;;;;;;1.13;1.13;;;;;;;;;;6338736;28;20265;-78
2022/01/29 02:41:05;;;;;;;1.80;1.20;;;;;;;;;;6338674;28;20296;-77
2022/01/29 02:44:09;;;;;;;3.47;1.30;;;;;;;;;;6339079;28;20213;-78
2022/01/29 02:47:27;;;;;;;4.30;1.30;;;;;;;;;;6338504;28;20304;-78
2022/01/29 02:50:31;;;;;;;6.80;1.47;;;;;;;;;;6338432;28;20247;-78
2022/01/29 02:53:37;;;;;;;4.00;1.20;;;;;;;;;;6339402;28;20190;-78
2022/01/29 02:56:41;;;;;;;3.83;1.10;;;;;;;;;;6338418;28;20245;-78
2022/01/29 02:59:45;;;;;;;6.70;1.50;;;;;;;;;;6339198;28;20217;-78
2022/01/29 03:02:50;;;;;;;3.97;1.27;;;;;;;;;;6339269;28;20334;-78
2022/01/29 03:05:55;;;;;;;1.27;1.10;;;;;;;;;;6337448;28;20518;-78
2022/01/29 03:09:01;;;;;;;1.27;1.27;;;;;;;;;;6339270;28;20186;-78
2022/01/29 03:12:05;;;;;;;1.63;1.30;;;;;;;;;;6337681;28;20239;-78
2022/01/29 03:15:13;;;;;;;1.30;1.20;;;;;;;;;;6338457;28;20229;-78
2022/01/29 03:18:17;;;;;;;2.63;1.10;;;;;;;;;;6337793;28;20429;-78
2022/01/29 03:21:21;;;;;;;3.20;1.30;;;;;;;;;;6338035;28;20463;-78
2022/01/29 03:24:27;;;;;;;2.00;1.00;;;;;;;;;;6337447;28;20209;-78
2022/01/29 03:27:31;;;;;;;1.30;1.20;;;;;;;;;;6337366;28;20253;-78
2022/01/29 03:30:35;;;;;;;2.70;1.30;;;;;;;;;;6336952;28;20229;-77
2022/01/29 03:33:39;;;;;;;3.23;0.93;;;;;;;;;;6337562;28;20190;-78
2022/01/29 03:36:43;;;;;;;1.97;1.30;;;;;;;;;;6336867;28;20233;-77
2022/01/29 03:39:48;;;;;;;2.93;1.50;;;;;;;;;;6338301;28;20217;-78
2022/01/29 03:43:00;;;;;;;2.77;1.27;;;;;;;;;;6337790;28;20190;-78
2022/01/29 03:46:05;;;;;;;4.43;1.23;;;;;;;;;;6337856;28;20236;-78
2022/01/29 03:49:10;;;;;;;0.90;0.90;;;;;;;;;;6338569;28;20213;-78
2022/01/29 03:52:15;;;;;;;2.67;1.47;;;;;;;;;;6338081;28;20347;-78
2022/01/29 03:55:22;;;;;;;3.13;1.40;;;;;;;;;;6338311;28;20411;-78
2022/01/29 03:58:26;;;;;;;5.20;1.40;;;;;;;;;;6338591;28;20218;-78
2022/01/29 04:01:30;;;;;;;1.80;1.20;;;;;;;;;;6339221;28;20237;-78
2022/01/29 04:04:34;;;;;;;2.73;1.07;;;;;;;;;;6339375;28;20213;-78
2022/01/29 04:07:40;;;;;;;3.20;1.37;;;;;;;;;;6339659;28;20205;-78
2022/01/29 04:10:47;;;;;;;2.37;1.30;;;;;;;;;;6339233;28;20230;-79
2022/01/29 04:13:51;;;;;;;3.27;1.30;;;;;;;;;;6339669;28;20184;-78
2022/01/29 04:16:56;;;;;;;2.93;1.10;;;;;;;;;;6339228;28;20233;-78
2022/01/29 04:20:00;;;;;;;1.47;1.17;;;;;;;;;;6343090;28;20285;-78
2022/01/29 04:23:06;;;;;;;1.50;1.40;;;;;;;;;;6343207;28;20233;-78
2022/01/29 04:26:14;;;;;;;3.60;1.10;;;;;;;;;;6343037;28;20253;-78
2022/01/29 04:29:19;;;;;;;1.50;1.40;;;;;;;;;;6343242;28;20377;-78
2022/01/29 04:32:31;;;;;;;4.10;1.40;;;;;;;;;;6342521;28;20226;-78
2022/01/29 04:35:36;;;;;;;2.00;1.20;;;;;;;;;;6337312;28;20230;-78
2022/01/29 04:38:40;;;;;;;4.13;1.40;;;;;;;;;;6337476;28;20228;-78
2022/01/29 04:41:45;;;;;;;3.13;1.40;;;;;;;;;;6336178;28;20547;-78
2022/01/29 04:44:49;;;;;;;2.20;1.30;;;;;;;;;;6336891;28;20274;-78
2022/01/29 04:47:54;;;;;;;3.50;1.60;;;;;;;;;;6341435;28;20225;-78
2022/01/29 04:50:58;;;;;;;3.20;1.30;;;;;;;;;;6341332;28;20410;-78
2022/01/29 04:54:02;;;;;;;3.37;1.03;;;;;;;;;;6342191;28;20218;-78
2022/01/29 04:57:08;;;;;;;2.30;1.23;;;;;;;;;;6341472;28;20230;-78
2022/01/29 05:00:19;;;;;;;1.93;1.50;;;;;;;;;;6340830;28;20277;-78
2022/01/29 05:03:23;;;;;;;4.90;1.50;;;;;;;;;;6341280;28;20198;-78
2022/01/29 05:06:27;;;;;;;1.50;1.40;;;;;;;;;;6340435;28;20537;-78
2022/01/29 05:09:31;;;;;;;7.43;1.33;;;;;;;;;;6340758;28;20206;-78
2022/01/29 05:12:45;;;;;;;2.63;1.33;;;;;;;;;;6340929;28;20228;-77
2022/01/29 05:16:04;;;;;;;1.37;1.37;;;;;;;;;;6339767;28;20309;-77
2022/01/29 05:29:14;;;;;;;3.30;1.23;;;;;;;;;;6339707;28;20187;-77
2022/01/29 05:32:18;;;;;;;2.23;1.17;;;;;;;;;;6338457;28;20566;-77
2022/01/29 05:35:22;;;;;;;4.80;1.20;;;;;;;;;;6338621;28;20602;-77
2022/01/29 05:38:27;;;;;;;1.10;1.10;;;;;;;;;;6340931;28;20272;-78
2022/01/29 05:41:32;;;;;;;2.87;1.40;;;;;;;;;;6340248;28;20233;-78
2022/01/29 05:44:37;;;;;;;2.77;1.10;;;;;;;;;;6340087;28;20226;-78
2022/01/29 05:47:41;;;;;;;2.53;1.10;;;;;;;;;;6340420;28;20451;-78
2022/01/29 05:50:46;;;;;;;1.70;1.30;;;;;;;;;;6340236;28;20230;-78
2022/01/29 05:53:50;;;;;;;1.83;0.97;;;;;;;;;;6340880;28;20183;-78
2022/01/29 05:56:56;;;;;;;2.63;1.50;;;;;;;;;;6339490;28;20250;-78
2022/01/29 06:00:01;;;;;;;1.60;0.93;;;;;;;;;;6340378;28;20223;-78
2022/01/29 06:03:07;;;;;;;2.10;1.10;;;;;;;;;;6339974;28;20246;-78
2022/01/29 06:06:12;;;;;;;1.90;1.20;;;;;;;;;;6339115;28;20466;-78
2022/01/29 06:09:16;;;;;;;2.23;1.37;;;;;;;;;;6339235;28;20436;-78
2022/01/29 06:12:20;;;;;;;0.83;0.83;;;;;;;;;;6339103;28;20316;-78
2022/01/29 06:15:26;;;;;;;1.47;1.37;;;;;;;;;;6339630;28;20223;-78
2022/01/29 06:18:31;;;;;;;4.73;1.20;;;;;;;;;;6339704;28;20187;-78
2022/01/29 06:21:36;;;;;;;4.27;1.33;;;;;;;;;;6339460;28;20223;-78
2022/01/29 06:24:41;;;;;;;1.10;1.10;;;;;;;;;;6338331;28;20352;-78
2022/01/29 06:27:46;;;;;;;1.23;1.20;;;;;;;;;;6339967;28;20220;-78
2022/01/29 06:30:51;;;;;;;3.13;1.13;;;;;;;;;;6338881;28;20261;-78
2022/01/29 06:33:55;;;;;;;1.27;1.27;;;;;;;;;;6338791;28;20183;-78
2022/01/29 06:36:59;;;;;;;2.13;1.10;;;;;;;;;;6338162;28;20338;-78
2022/01/29 06:40:04;;;;;;;3.00;1.10;;;;;;;;;;6338959;28;20231;-78
2022/01/29 06:43:12;;;;;;;2.73;1.00;;;;;;;;;;6339842;28;20183;-78
2022/01/29 06:46:18;;;;;;;1.10;1.00;;;;;;;;;;6337296;28;20483;-77
2022/01/29 06:49:22;;;;;;;5.10;1.10;;;;;;;;;;6338535;28;20218;-77
2022/01/29 06:52:26;;;;;;;3.33;1.20;;;;;;;;;;6337731;28;20238;-77
2022/01/29 06:55:30;;;;;;;2.60;1.40;;;;;;;;;;6337509;28;20222;-77
2022/01/29 06:58:35;;;;;;;2.10;1.10;;;;;;;;;;6336844;28;20393;-77
2022/01/29 07:02:01;;;;;;;1.10;1.10;;;;;;;;;;6337294;28;20550;-77
2022/01/29 07:05:06;;;;;;;1.13;1.13;;;;;;;;;;6336805;28;20230;-79
2022/01/29 07:08:14;;;;;;;1.70;1.10;;;;;;;;;;6336624;28;20399;-76
2022/01/29 07:11:21;;;;;;;3.83;1.10;;;;;;;;;;6336816;28;20292;-76
2022/01/29 07:14:25;;;;;;;1.03;0.93;;;;;;;;;;6337399;28;20215;-76
2022/01/29 07:17:30;;;;;;;1.50;1.40;;;;;;;;;;6336579;28;20226;-77
2022/01/29 07:20:37;;;;;;;1.40;1.20;;;;;;;;;;6336660;28;20249;-77
2022/01/29 07:23:41;;;;;;;1.20;1.10;;;;;;;;;;6337719;28;20224;-78
2022/01/29 07:26:46;;;;;;;1.53;0.93;;;;;;;;;;6337327;28;20288;-77
2022/01/29 07:29:50;;;;;;;1.00;1.00;;;;;;;;;;6337506;28;20516;-77
2022/01/29 07:32:55;;;;;;;0.80;0.80;;;;;;;;;;6336859;28;20195;-77
2022/01/29 07:35:59;;;;;;;1.00;1.00;;;;;;;;;;6338152;28;20241;-78
2022/01/29 07:39:03;;;;;;;1.00;1.00;;;;;;;;;;6338224;28;20309;-78
2022/01/29 07:42:10;;;;;;;2.30;1.00;;;;;;;;;;6320163;28;20240;-78
2022/01/29 07:45:14;;;;;;;0.90;0.90;;;;;;;;;;6338416;28;20221;-78
2022/01/29 07:48:20;;;;;;;1.00;1.00;;;;;;;;;;6337652;28;20453;-78
2022/01/29 07:51:24;;;;;;;2.50;0.97;;;;;;;;;;6337543;28;20253;-77
2022/01/29 07:54:28;;;;;;;2.83;1.10;;;;;;;;;;6336516;28;20184;-77
2022/01/29 07:57:33;;;;;;;1.13;1.13;;;;;;;;;;6336477;28;20237;-77
2022/01/29 08:00:37;;;;;;;0.77;0.77;;;;;;;;;;6336187;28;20410;-77
2022/01/29 08:03:46;;;;;;;0.90;0.90;;;;;;;;;;6337028;28;20186;-77
2022/01/29 08:06:50;;;;;;;0.73;0.73;;;;;;;;;;6337175;28;20236;-78
2022/01/29 08:09:54;;;;;;;1.43;1.37;;;;;;;;;;6336953;28;20251;-78
2022/01/29 08:12:59;;;;;;;1.00;1.00;;;;;;;;;;6337567;28;20192;-78
2022/01/29 08:16:03;;;;;;;0.97;0.97;;;;;;;;;;6337936;28;20234;-78
2022/01/29 08:19:09;;;;;;;1.00;1.00;;;;;;;;;;6338020;28;20221;-78
2022/01/29 08:22:13;;;;;;;1.10;1.10;;;;;;;;;;6341872;28;20429;-78
2022/01/29 08:25:18;;;;;;;1.00;1.00;;;;;;;;;;6341537;28;20252;-78
2022/01/29 08:28:24;;;;;;;1.60;1.10;;;;;;;;;;6341631;28;20211;-78
2022/01/29 08:31:28;;;;;;;1.13;1.13;;;;;;;;;;6341597;28;20226;-78
2022/01/29 08:34:34;;;;;;;3.80;1.10;;;;;;;;;;6343200;28;20250;-78
2022/01/29 08:37:38;;;;;;;1.57;1.20;;;;;;;;;;6341323;28;20258;-78
2022/01/29 08:40:42;;;;;;;3.70;1.10;;;;;;;;;;6340859;28;20535;-77
2022/01/29 08:43:46;;;;;;;1.80;1.17;;;;;;;;;;6341926;28;20217;-76
2022/01/29 08:46:51;;;;;;;1.47;1.47;;;;;;;;;;6340300;28;20223;-76
2022/01/29 08:49:57;;;;;;;1.10;1.10;;;;;;;;;;6339639;28;20184;-76
2022/01/29 08:53:01;;;;;;;0.93;0.93;;;;;;;;;;6339729;28;20374;-76
2022/01/29 08:56:06;;;;;;;2.83;1.20;;;;;;;;;;6339465;28;20237;-76
2022/01/29 08:59:11;;;;;;;1.37;1.17;;;;;;;;;;6340382;28;20209;-78
2022/01/29 09:02:15;;;;;;;2.43;1.20;;;;;;;;;;6341366;28;20293;-78
2022/01/29 09:05:22;;;;;;;1.20;1.10;;;;;;;;;;6342156;28;20221;-78
2022/01/29 09:08:26;;;;;;;1.10;1.00;;;;;;;;;;6341861;28;20221;-77
2022/01/29 09:11:30;;;;;;;1.23;1.10;;;;;;;;;;6340121;28;20231;-77
2022/01/29 09:14:34;;;;;;;1.30;1.30;;;;;;;;;;6339895;28;20192;-76
2022/01/29 09:17:39;;;;;;;1.13;1.00;;;;;;;;;;6339926;28;20262;-76
2022/01/29 09:20:45;;;;;;;1.10;1.10;;;;;;;;;;6339735;28;20250;-75
2022/01/29 09:23:49;;;;;;;6.00;1.40;;;;;;;;;;6339300;28;20211;-75
2022/01/29 09:26:53;;;;;;;1.03;0.90;;;;;;;;;;6339216;28;20230;-75
2022/01/29 09:29:57;;;;;;;1.43;1.20;;;;;;;;;;6339477;28;20183;-77
2022/01/29 09:33:02;;;;;;;1.77;1.10;;;;;;;;;;6339751;28;20191;-77
2022/01/29 09:36:21;;;;;;;1.97;1.10;;;;;;;;;;6342535;28;20231;-78
2022/01/29 09:39:29;;;;;;;1.00;1.00;;;;;;;;;;6344362;28;20254;-78
2022/01/29 09:43:18;;;;;;;1.10;1.10;;;;;;;;;;6319446;28;20535;-76
2022/01/29 09:46:23;;;;;;;3.30;1.40;;;;;;;;;;6341495;28;20230;-77
2022/01/29 09:49:37;;;;;;;4.13;1.60;;;;;;;;;;6347461;28;20274;-77
2022/01/29 09:53:09;;;;;;;1.40;1.40;;;;;;;;;;6327017;28;20216;-76
2022/01/29 09:56:14;;;;;;;5.80;1.60;;;;;;;;;;6340132;28;20229;-75
2022/01/29 09:59:18;;;;;;;3.53;1.50;;;;;;;;;;6341231;28;20221;-76
2022/01/29 10:02:23;;;;;;;1.37;1.37;;;;;;;;;;6340027;28;20233;-76
2022/01/29 10:05:35;;;;;;;1.33;1.33;;;;;;;;;;6340002;28;20221;-77
2022/01/29 10:08:44;;;;;;;3.73;1.37;;;;;;;;;;6340995;28;20218;-77
2022/01/29 10:11:49;;;;;;;1.50;1.50;;;;;;;;;;6339179;28;20445;-76
2022/01/29 10:15:13;;;;;;;1.67;1.57;;;;;;;;;;6339470;28;20241;-77
2022/01/29 10:18:22;;;;;;;1.63;1.53;;;;;;;;;;6339712;28;20210;-78
2022/01/29 10:21:27;;;;;;;1.50;1.40;;;;;;;;;;6339907;28;20229;-77
2022/01/29 10:24:50;;;;;;;9.60;2.23;;;;;;;;;;6338777;28;20183;-77
2022/01/29 10:28:12;;;;;;;2.93;2.00;;;;;;;;;;6338802;28;20426;-78
2022/01/29 10:31:16;;;;;;;3.20;1.70;;;;;;;;;;6338455;28;20298;-78
2022/01/29 10:34:23;;;;;;;1.80;1.70;;;;;;;;;;6338942;28;20333;-78
2022/01/29 10:37:27;;;;;;;3.50;1.63;;;;;;;;;;6338449;28;20240;-78
2022/01/29 10:40:34;;;;;;;7.90;2.13;;;;;;;;;;6337708;28;20227;-77
2022/01/29 10:43:57;;;;;;;2.90;1.70;;;;;;;;;;6338384;28;20193;-77
2022/01/29 10:47:01;;;;;;;1.63;1.63;;;;;;;;;;6338968;28;20250;-77
2022/01/29 10:50:07;;;;;;;2.20;1.40;;;;;;;;;;6337953;28;20569;-77
2022/01/29 10:53:26;;;;;;;2.83;1.70;;;;;;;;;;6339042;28;20193;-77
2022/01/29 10:56:50;;;;;;;3.60;1.17;;;;;;;;;;6338336;28;20252;-77
2022/01/29 10:59:54;;;;;;;2.10;1.43;;;;;;;;;;6337445;28;20527;-77
2022/01/29 11:03:01;;;;;;;1.60;1.50;;;;;;;;;;6339183;28;20254;-77
2022/01/29 11:06:05;;;;;;;2.30;1.53;;;;;;;;;;6337498;28;20233;-77
2022/01/29 11:09:13;;;;;;;1.37;1.37;;;;;;;;;;6338196;28;20279;-77
2022/01/29 11:12:19;;;;;;;1.40;1.40;;;;;;;;;;6338206;28;20574;-77
2022/01/29 11:15:25;;;;;;;1.47;1.43;;;;;;;;;;6338559;28;20461;-78
2022/01/29 11:18:29;;;;;;;2.87;1.40;;;;;;;;;;6337833;28;20187;-78
2022/01/29 11:21:34;;;;;;;1.57;1.50;;;;;;;;;;6337342;28;20226;-78
2022/01/29 11:24:40;;;;;;;6.80;1.40;;;;;;;;;;6337232;28;20183;-78
2022/01/29 11:27:45;;;;;;;1.20;1.20;;;;;;;;;;6338852;28;20290;-78
2022/01/29 11:31:19;;;;;;;4.03;1.43;;;;;;;;;;6337783;28;20280;-78
2022/01/29 11:34:23;;;;;;;1.30;1.30;;;;;;;;;;6337165;28;20193;-78
2022/01/29 11:37:38;;;;;;;1.70;1.60;;;;;;;;;;6337697;28;20302;-78
2022/01/29 11:40:55;;;;;;;1.60;1.50;;;;;;;;;;6337505;28;20225;-78
2022/01/29 11:44:26;;;;;;;1.30;1.23;;;;;;;;;;6337970;28;20184;-78
2022/01/29 11:47:48;;;;;;;1.17;1.17;;;;;;;;;;6336899;28;20226;-78
2022/01/29 11:50:53;;;;;;;1.43;1.40;;;;;;;;;;6336864;28;20521;-78
2022/01/29 11:53:58;;;;;;;1.50;1.40;;;;;;;;;;6338975;28;20372;-78
2022/01/29 11:57:14;;;;;;;2.83;1.50;;;;;;;;;;6343039;28;20282;-79
2022/01/29 12:00:37;;;;;;;1.53;1.40;;;;;;;;;;6343210;28;20412;-79
2022/01/29 12:03:53;;;;;;;1.17;1.17;;;;;;;;;;6345419;28;20192;-81
2022/01/29 12:07:11;;;;;;;1.30;1.30;;;;;;;;;;6343565;28;20226;-81
2022/01/29 12:10:16;;;;;;;2.47;1.10;;;;;;;;;;6343024;28;20276;-82
2022/01/29 12:13:21;;;;;;;1.40;1.30;;;;;;;;;;6343904;28;20191;-78
2022/01/29 12:16:54;;;;;;;1.50;1.20;;;;;;;;;;6343967;28;20226;-78
2022/01/29 12:20:01;;;;;;;1.50;1.50;;;;;;;;;;6343981;28;22647;-78
2022/01/29 12:23:06;;;;;;;1.40;1.30;;;;;;;;;;6343701;28;20259;-78
2022/01/29 12:26:11;;;;;;;2.30;1.37;;;;;;;;;;6342044;28;20254;-78
2022/01/29 12:29:16;;;;;;;1.37;1.37;;;;;;;;;;6342156;28;20208;-78
2022/01/29 12:32:22;;;;;;;1.60;1.60;;;;;;;;;;6341651;28;20238;-77
2022/01/29 12:35:38;;;;;;;1.63;1.50;;;;;;;;;;6341857;28;20227;-78
2022/01/29 12:38:45;;;;;;;1.77;1.77;;;;;;;;;;6343065;28;20242;-77
2022/01/29 12:42:03;;;;;;;1.80;1.70;;;;;;;;;;6342700;28;20291;-78
2022/01/29 12:45:09;;;;;;;1.00;1.00;;;;;;;;;;6342184;28;20234;-78
2022/01/29 12:48:18;;;;;;;1.07;1.07;;;;;;;;;;6342093;28;20184;-79
2022/01/29 12:51:22;;;;;;;3.20;1.27;;;;;;;;;;6341772;28;20254;-78
2022/01/29 12:54:29;;;;;;;1.10;1.10;;;;;;;;;;6341271;28;20220;-77
2022/01/29 12:57:44;;;;;;;1.10;1.10;;;;;;;;;;6341202;28;20278;-77
2022/01/29 13:01:01;;;;;;;1.10;1.07;;;;;;;;;;6340138;28;20231;-76
2022/01/29 13:04:10;;;;;;;1.10;1.10;;;;;;;;;;6340380;28;20221;-76
2022/01/29 13:07:15;;;;;;;1.30;1.20;;;;;;;;;;6338952;28;20230;-76
2022/01/29 13:10:19;;;;;;;1.30;1.30;;;;;;;;;;6340122;28;20228;-76
2022/01/29 13:13:27;;;;;;;1.30;1.30;;;;;;;;;;6340706;28;20185;-76
2022/01/29 13:16:32;;;;;;;1.70;1.60;;;;;;;;;;6339208;28;20510;-77
2022/01/29 13:19:43;;;;;;;1.47;1.47;;;;;;;;;;6340815;28;20220;-77
2022/01/29 13:22:47;;;;;;;2.10;1.53;;;;;;;;;;6339740;28;20493;-77
2022/01/29 13:25:50;;;;;;;1.67;1.57;;;;;;;;;;6340246;28;20231;-77
2022/01/29 13:28:59;;;;;;;6.43;1.43;;;;;;;;;;6340435;28;20205;-78
2022/01/29 13:32:06;;;;;;;1.50;1.50;;;;;;;;;;6340300;28;20234;-77
2022/01/29 13:35:21;;;;;;;1.40;1.40;;;;;;;;;;6340482;28;20301;-77
2022/01/29 13:38:27;;;;;;;1.70;1.60;;;;;;;;;;6340516;28;20442;-77
2022/01/29 13:41:31;;;;;;;1.60;1.60;;;;;;;;;;6340026;28;20299;-77
2022/01/29 13:44:36;;;;;;;1.50;1.50;;;;;;;;;;6340714;28;20192;-77
2022/01/29 13:47:58;;;;;;;1.50;1.50;;;;;;;;;;6339911;28;20226;-78
2022/01/29 13:51:04;;;;;;;1.43;1.43;;;;;;;;;;6339417;28;20309;-77
2022/01/29 13:54:22;;;;;;;1.40;1.40;;;;;;;;;;6339326;28;20476;-77
2022/01/29 13:57:27;;;;;;;1.40;1.40;;;;;;;;;;6339670;28;20231;-77
2022/01/29 14:00:56;;;;;;;1.27;1.27;;;;;;;;;;6340631;28;20246;-78
2022/01/29 14:04:00;;;;;;;1.73;1.70;;;;;;;;;;6340165;28;20182;-78
2022/01/29 14:07:09;;;;;;;1.97;1.67;;;;;;;;;;6339530;28;20230;-78
2022/01/29 14:10:14;;;;;;;2.30;2.10;;;;;;;;;;6339811;28;20239;-77
2022/01/29 14:24:21;;;;;;;0.90;0.90;;;;;;;;;;6346790;27;74872;-72
2022/01/29 14:28:56;;;;;;;3.55;1.20;;;;;;;6.21;69.69;97799.88;4175285;27;20949;-72
2022/01/29 14:31:00;;;;;;;0.93;0.93;;;;;;;5.41;73.46;97804.09;4175275;28;20452;-73
2022/01/29 14:33:05;;;;;;;1.17;1.17;;;;;;;5.03;77.48;97795.19;4172659;28;20295;-72
2022/01/29 14:35:11;;;;;;;3.13;2.47;;;;;;;5.14;77.30;97778.38;4172134;28;20239;-72
2022/01/29 14:37:15;;;;;;;73.90;11.10;;;;;;;4.82;78.71;97766.94;4172560;28;20464;-72
2022/01/29 14:39:25;;;;;;;1.23;1.23;;;;;;;4.44;80.49;97756.19;4172104;28;20239;-72
2022/01/29 14:41:30;;;;;;;1.30;1.30;;;;;;;4.21;81.29;97749.50;4171864;28;20235;-72
2022/01/29 14:43:35;;;;;;;1.30;1.30;;;;;;;3.90;83.35;97738.75;4171878;28;20304;-72
2022/01/29 14:45:41;;;;;;;1.10;1.10;;;;;;;3.86;83.93;97733.19;4171398;28;20239;-72
2022/01/29 14:47:47;;;;;;;1.33;1.23;;;;;;;3.64;86.04;97726.47;4171987;28;20451;-72
2022/01/29 14:49:53;;;;;;;1.17;1.17;;;;;;;3.61;86.95;97709.63;4170752;28;20187;-72
2022/01/29 14:52:03;;;;;;;0.97;0.97;;;;;;;3.65;86.74;97710.84;4172285;28;20399;-72
2022/01/29 14:54:07;;;;;;;1.00;1.00;;;;;;;3.67;86.91;97702.91;4186967;28;20237;-72
2022/01/29 14:56:11;;;;;;;1.03;1.03;;;;;;;3.54;87.74;97689.94;4185889;28;20231;-72
2022/01/29 14:58:15;;;;;;;1.00;1.00;;;;;;;3.51;87.72;97673.13;4188164;28;20495;-71
2022/01/29 15:00:20;;;;;;;1.10;1.10;;;;;;;3.77;87.15;97666.59;4188458;28;20187;-71
2022/01/29 15:02:26;;;;;;;1.10;1.10;;;;;;;3.55;88.40;97650.41;4187458;28;20293;-72
2022/01/29 15:04:31;;;;;;;1.00;1.00;;;;;;;3.44;89.81;97638.81;4188256;28;20480;-71
2022/01/29 15:06:35;;;;;;;1.23;1.23;;;;;;;3.49;89.50;97626.22;4187768;28;20235;-71
2022/01/29 15:08:41;;;;;;;1.10;1.10;;;;;;;3.49;89.82;97612.56;4187411;28;20329;-71
2022/01/29 15:10:46;;;;;;;1.40;1.40;;;;;;;3.44;90.43;97607.97;4187816;28;20192;-72
2022/01/29 15:12:50;;;;;;;1.23;1.23;;;;;;;3.50;90.02;97586.66;4187456;28;20194;-71
2022/01/29 15:14:54;;;;;;;1.20;1.20;;;;;;;3.48;90.53;97574.94;4187492;28;20198;-71
2022/01/29 15:17:19;;;;;;;1.33;1.33;;;;;;;3.47;90.58;97561.28;4186812;28;20234;-71
2022/01/29 15:19:25;;;;;;;2.33;1.37;;;;;;;3.43;90.75;97544.66;4188287;28;20374;-71
2022/01/29 15:21:30;;;;;;;1.43;1.43;;;;;;;3.53;90.23;97539.19;4187499;28;20238;-72
2022/01/29 15:23:34;;;;;;;1.30;1.30;;;;;;;3.44;90.86;97533.38;4187200;28;20211;-71
2022/01/29 15:25:40;;;;;;;1.30;1.30;;;;;;;3.49;90.79;97523.31;4187331;28;20518;-71
2022/01/29 15:27:47;;;;;;;1.43;1.40;;;;;;;3.46;91.07;97521.13;4187138;28;20298;-71
2022/01/29 15:29:51;;;;;;;3.17;1.40;;;;;;;3.38;91.59;97505.84;4187637;28;20492;-72
2022/01/29 15:31:55;;;;;;;1.80;1.47;;;;;;;3.35;91.86;97498.53;4186696;28;20281;-71
2022/01/29 15:34:00;;;;;;;4.50;1.40;;;;;;;3.43;91.79;97492.41;4187125;28;20193;-72
2022/01/29 15:36:07;;;;;;;1.57;1.37;;;;;;;3.39;92.34;97466.28;4187093;28;20253;-71
2022/01/29 15:38:13;;;;;;;1.43;1.43;;;;;;;3.57;91.51;97452.94;4187071;28;20192;-71
2022/01/29 15:40:18;;;;;;;1.30;1.30;;;;;;;3.66;91.65;97444.09;4175814;28;20188;-71
2022/01/29 15:42:22;;;;;;;1.47;1.47;;;;;;;3.55;91.94;97437.69;4175743;28;20263;-72
2022/01/29 15:44:26;;;;;;;1.30;1.30;;;;;;;3.57;92.16;97435.75;4175986;28;20194;-71
2022/01/29 15:46:30;;;;;;;1.40;1.40;;;;;;;3.63;92.38;97416.19;4176435;28;20274;-72
2022/01/29 15:48:37;;;;;;;1.60;1.50;;;;;;;3.71;92.51;97411.66;4176243;28;20279;-72
2022/01/29 15:50:41;;;;;;;1.73;1.60;;;;;;;3.67;92.49;97400.16;4175924;28;20191;-71
2022/01/29 15:52:50;;;;;;;1.70;1.60;;;;;;;3.67;92.42;97395.00;4176696;28;20196;-71
2022/01/29 15:54:54;;;;;;;2.60;1.90;;;;;;;3.76;92.12;97385.34;4176661;28;20250;-71
2022/01/29 15:56:58;;;;;;;2.00;1.60;;;;;;;3.89;92.66;97371.72;4175816;28;20446;-71
2022/01/29 15:59:03;;;;;;;2.40;1.83;;;;;;;3.73;92.91;97365.94;4176611;28;20193;-71
2022/01/29 16:01:08;;;;;;;2.13;2.00;;;;;;;3.76;93.11;97357.03;4175692;28;20258;-71
2022/01/29 16:03:12;;;;;;;1.83;1.80;;;;;;;3.77;93.12;97347.53;4176088;28;20471;-72
2022/01/29 16:05:16;;;;;;;2.00;1.90;;;;;;;3.70;93.34;97340.59;4176071;28;20188;-72
2022/01/29 16:07:21;;;;;;;1.70;1.60;;;;;;;3.77;93.68;97321.81;4175658;28;20277;-72
2022/01/29 16:09:26;;;;;;;1.83;1.83;;;;;;;3.80;94.01;97311.94;4176373;28;20383;-71
2022/01/29 16:11:30;;;;;;;1.53;1.40;;;;;;;3.86;93.79;97300.06;4175729;28;20231;-71
2022/01/29 16:13:35;;;;;;;2.30;1.50;;;;;;;3.79;93.92;97288.97;4175581;28;20188;-71
2022/01/29 16:15:39;;;;;;;1.53;1.47;;;;;;;3.96;94.06;97287.63;4175714;28;20349;-72
2022/01/29 16:17:43;;;;;;;2.50;2.33;;;;;;;3.96;94.23;97278.13;4176136;28;20400;-70
2022/01/29 16:19:48;;;;;;;5.30;2.40;;;;;;;3.93;94.41;97268.22;4176329;28;20199;-71
2022/01/29 16:21:52;;;;;;;1.67;1.67;;;;;;;3.94;94.40;97256.13;4175354;28;20315;-71
2022/01/29 16:23:57;;;;;;;2.00;1.90;;;;;;;4.03;94.89;97247.22;4175364;28;20196;-71
2022/01/29 16:26:02;;;;;;;1.60;1.60;;;;;;;4.13;94.67;97236.53;4175412;28;20274;-71
2022/01/29 16:28:07;;;;;;;13.73;8.37;;;;;;;4.10;94.57;97224.84;4175687;28;20307;-71
2022/01/29 16:30:12;;;;;;;1.50;1.40;;;;;;;4.15;94.53;97217.31;4175808;28;20373;-70
2022/01/29 16:32:19;;;;;;;1.43;1.30;;;;;;;4.17;94.93;97210.19;4158682;28;20268;-71
2022/01/29 16:34:23;;;;;;;1.37;1.37;;;;;;;4.18;94.48;97203.25;4158836;28;20187;-71
2022/01/29 16:36:28;;;;;;;1.73;1.43;;;;;;;4.25;95.04;97196.31;4158347;28;20246;-72
2022/01/29 16:38:32;;;;;;;1.63;1.53;;;;;;;4.26;94.62;97179.88;4159081;28;20215;-71
2022/01/29 16:40:37;;;;;;;1.30;1.30;;;;;;;4.27;94.89;97171.97;4158490;28;20190;-73
2022/01/29 16:42:42;;;;;;;1.50;1.50;;;;;;;4.40;94.58;97164.19;4159466;28;20199;-71
2022/01/29 16:44:46;;;;;;;1.57;1.57;;;;;;;4.55;94.73;97158.00;4159281;28;20473;-72
2022/01/29 16:46:50;;;;;;;1.87;1.30;;;;;;;4.55;94.84;97145.13;4158621;28;20235;-71
2022/01/29 16:48:54;;;;;;;1.77;1.57;;;;;;;4.50;94.76;97139.78;4159509;28;20187;-71
2022/01/29 16:50:58;;;;;;;2.57;1.40;;;;;;;4.57;95.09;97130.25;4157179;28;20224;-71
2022/01/29 16:53:03;;;;;;;1.20;1.20;;;;;;;4.63;95.26;97119.91;4159195;28;20211;-71
2022/01/29 16:55:08;;;;;;;2.20;1.37;;;;;;;4.61;94.92;97109.00;4159381;28;20186;-71